sensor_id;sensor_type;location;lat;lon;timestamp;P1;durP1;ratioP1;P2;durP2;ratioP2
49722;SDS011;43484;43.608;1.458;2022-08-19T00:01:07;12.60;;;3.80;;
49722;SDS011;43484;43.608;1.458;2022-08-19T00:04:33;8.45;;;4.35;;
49722;SDS011;43484;43.608;1.458;2022-08-19T00:07:59;8.30;;;3.97;;
49722;SDS011;43484;43.608;1.458;2022-08-19T00:11:26;7.30;;;3.42;;
49722;SDS011;43484;43.608;1.458;2022-08-19T00:14:52;10.45;;;3.85;;
49722;SDS011;43484;43.608;1.458;2022-08-19T00:18:17;9.23;;;3.20;;
49722;SDS011;43484;43.608;1.458;2022-08-19T00:21:43;4.30;;;3.08;;
49722;SDS011;43484;43.608;1.458;2022-08-19T00:25:10;10.27;;;4.32;;
49722;SDS011;43484;43.608;1.458;2022-08-19T00:28:37;5.88;;;3.28;;
49722;SDS011;43484;43.608;1.458;2022-08-19T00:32:02;6.05;;;3.28;;
49722;SDS011;43484;43.608;1.458;2022-08-19T00:35:27;10.65;;;3.47;;
49722;SDS011;43484;43.608;1.458;2022-08-19T00:38:54;5.15;;;3.65;;
49722;SDS011;43484;43.608;1.458;2022-08-19T00:42:22;7.00;;;3.65;;
49722;SDS011;43484;43.608;1.458;2022-08-19T00:45:49;10.23;;;4.05;;
49722;SDS011;43484;43.608;1.458;2022-08-19T00:52:54;7.28;;;3.50;;
49722;SDS011;43484;43.608;1.458;2022-08-19T00:56:20;8.80;;;4.07;;
49722;SDS011;43484;43.608;1.458;2022-08-19T00:59:48;10.88;;;4.03;;
49722;SDS011;43484;43.608;1.458;2022-08-19T01:03:17;6.65;;;3.45;;
49722;SDS011;43484;43.608;1.458;2022-08-19T01:06:42;11.15;;;4.20;;
49722;SDS011;43484;43.608;1.458;2022-08-19T01:10:09;14.02;;;3.80;;
49722;SDS011;43484;43.608;1.458;2022-08-19T01:13:36;8.25;;;4.10;;
49722;SDS011;43484;43.608;1.458;2022-08-19T01:17:05;12.10;;;4.45;;
49722;SDS011;43484;43.608;1.458;2022-08-19T01:20:33;8.02;;;3.55;;
49722;SDS011;43484;43.608;1.458;2022-08-19T01:24:06;10.27;;;4.10;;
49722;SDS011;43484;43.608;1.458;2022-08-19T01:27:41;6.85;;;4.10;;
49722;SDS011;43484;43.608;1.458;2022-08-19T01:31:08;11.73;;;4.70;;
49722;SDS011;43484;43.608;1.458;2022-08-19T01:34:57;14.48;;;4.20;;
49722;SDS011;43484;43.608;1.458;2022-08-19T01:38:34;7.57;;;3.65;;
49722;SDS011;43484;43.608;1.458;2022-08-19T01:42:00;8.90;;;4.20;;
49722;SDS011;43484;43.608;1.458;2022-08-19T01:45:30;10.45;;;4.25;;
49722;SDS011;43484;43.608;1.458;2022-08-19T01:48:56;12.80;;;5.22;;
49722;SDS011;43484;43.608;1.458;2022-08-19T01:52:21;6.72;;;3.72;;
49722;SDS011;43484;43.608;1.458;2022-08-19T01:55:51;11.95;;;4.43;;
49722;SDS011;43484;43.608;1.458;2022-08-19T01:59:23;9.55;;;4.30;;
49722;SDS011;43484;43.608;1.458;2022-08-19T02:02:50;12.80;;;4.63;;
49722;SDS011;43484;43.608;1.458;2022-08-19T02:06:15;13.80;;;4.30;;
49722;SDS011;43484;43.608;1.458;2022-08-19T02:09:40;9.38;;;4.72;;
49722;SDS011;43484;43.608;1.458;2022-08-19T02:13:10;14.52;;;5.22;;
49722;SDS011;43484;43.608;1.458;2022-08-19T02:16:35;10.15;;;4.90;;
49722;SDS011;43484;43.608;1.458;2022-08-19T02:23:26;13.57;;;4.90;;
49722;SDS011;43484;43.608;1.458;2022-08-19T02:26:51;7.03;;;3.92;;
49722;SDS011;43484;43.608;1.458;2022-08-19T02:30:17;16.02;;;4.93;;
49722;SDS011;43484;43.608;1.458;2022-08-19T02:33:45;17.23;;;4.68;;
49722;SDS011;43484;43.608;1.458;2022-08-19T02:37:10;9.15;;;3.88;;
49722;SDS011;43484;43.608;1.458;2022-08-19T02:40:58;9.75;;;4.85;;
49722;SDS011;43484;43.608;1.458;2022-08-19T02:44:25;14.80;;;4.28;;
49722;SDS011;43484;43.608;1.458;2022-08-19T02:47:51;8.63;;;4.07;;
49722;SDS011;43484;43.608;1.458;2022-08-19T02:51:20;9.82;;;4.85;;
49722;SDS011;43484;43.608;1.458;2022-08-19T02:54:45;16.85;;;6.68;;
49722;SDS011;43484;43.608;1.458;2022-08-19T02:58:13;19.02;;;5.88;;
49722;SDS011;43484;43.608;1.458;2022-08-19T03:01:39;9.23;;;3.90;;
49722;SDS011;43484;43.608;1.458;2022-08-19T03:05:05;8.02;;;4.45;;
49722;SDS011;43484;43.608;1.458;2022-08-19T03:08:33;10.57;;;4.75;;
49722;SDS011;43484;43.608;1.458;2022-08-19T03:11:58;20.90;;;5.25;;
49722;SDS011;43484;43.608;1.458;2022-08-19T03:15:27;11.63;;;4.78;;
49722;SDS011;43484;43.608;1.458;2022-08-19T03:18:55;9.77;;;4.05;;
49722;SDS011;43484;43.608;1.458;2022-08-19T03:22:21;13.35;;;4.60;;
49722;SDS011;43484;43.608;1.458;2022-08-19T03:25:47;11.43;;;4.68;;
49722;SDS011;43484;43.608;1.458;2022-08-19T03:29:14;8.80;;;3.70;;
49722;SDS011;43484;43.608;1.458;2022-08-19T03:32:45;11.20;;;4.07;;
49722;SDS011;43484;43.608;1.458;2022-08-19T03:36:15;12.13;;;4.45;;
49722;SDS011;43484;43.608;1.458;2022-08-19T03:39:41;8.98;;;4.40;;
49722;SDS011;43484;43.608;1.458;2022-08-19T03:43:06;13.15;;;4.60;;
49722;SDS011;43484;43.608;1.458;2022-08-19T03:46:37;12.38;;;4.07;;
49722;SDS011;43484;43.608;1.458;2022-08-19T03:50:04;14.65;;;4.55;;
49722;SDS011;43484;43.608;1.458;2022-08-19T03:53:21;8.13;;;3.85;;
49722;SDS011;43484;43.608;1.458;2022-08-19T03:56:49;10.93;;;4.45;;
49722;SDS011;43484;43.608;1.458;2022-08-19T04:00:15;11.55;;;4.03;;
49722;SDS011;43484;43.608;1.458;2022-08-19T04:03:42;11.60;;;4.47;;
49722;SDS011;43484;43.608;1.458;2022-08-19T04:07:10;16.20;;;4.53;;
49722;SDS011;43484;43.608;1.458;2022-08-19T04:10:39;13.65;;;4.40;;
49722;SDS011;43484;43.608;1.458;2022-08-19T04:14:14;6.50;;;3.50;;
49722;SDS011;43484;43.608;1.458;2022-08-19T04:17:40;13.38;;;5.00;;
49722;SDS011;43484;43.608;1.458;2022-08-19T04:21:07;8.85;;;4.30;;
49722;SDS011;43484;43.608;1.458;2022-08-19T04:24:33;18.63;;;4.88;;
49722;SDS011;43484;43.608;1.458;2022-08-19T04:28:03;17.38;;;3.92;;
49722;SDS011;43484;43.608;1.458;2022-08-19T04:31:38;11.35;;;3.80;;
49722;SDS011;43484;43.608;1.458;2022-08-19T04:35:04;10.00;;;4.53;;
49722;SDS011;43484;43.608;1.458;2022-08-19T04:38:29;10.95;;;4.18;;
49722;SDS011;43484;43.608;1.458;2022-08-19T04:42:15;7.70;;;3.67;;
49722;SDS011;43484;43.608;1.458;2022-08-19T04:45:44;14.07;;;4.65;;
49722;SDS011;43484;43.608;1.458;2022-08-19T04:49:17;15.10;;;4.68;;
49722;SDS011;43484;43.608;1.458;2022-08-19T04:52:42;8.02;;;3.70;;
49722;SDS011;43484;43.608;1.458;2022-08-19T04:56:09;11.40;;;3.88;;
49722;SDS011;43484;43.608;1.458;2022-08-19T04:59:37;12.73;;;4.43;;
49722;SDS011;43484;43.608;1.458;2022-08-19T05:02:53;9.50;;;4.15;;
49722;SDS011;43484;43.608;1.458;2022-08-19T05:06:19;13.80;;;4.00;;
49722;SDS011;43484;43.608;1.458;2022-08-19T05:09:45;14.20;;;4.20;;
49722;SDS011;43484;43.608;1.458;2022-08-19T05:13:10;9.82;;;3.63;;
49722;SDS011;43484;43.608;1.458;2022-08-19T05:16:37;12.63;;;4.20;;
49722;SDS011;43484;43.608;1.458;2022-08-19T05:20:05;9.05;;;3.70;;
49722;SDS011;43484;43.608;1.458;2022-08-19T05:23:56;12.05;;;3.83;;
49722;SDS011;43484;43.608;1.458;2022-08-19T05:27:37;11.23;;;3.80;;
49722;SDS011;43484;43.608;1.458;2022-08-19T05:31:02;14.02;;;4.55;;
49722;SDS011;43484;43.608;1.458;2022-08-19T05:34:31;12.55;;;3.65;;
49722;SDS011;43484;43.608;1.458;2022-08-19T05:38:00;12.32;;;3.72;;
49722;SDS011;43484;43.608;1.458;2022-08-19T05:44:51;12.47;;;3.90;;
49722;SDS011;43484;43.608;1.458;2022-08-19T05:48:16;14.35;;;4.55;;
49722;SDS011;43484;43.608;1.458;2022-08-19T05:51:42;20.27;;;4.75;;
49722;SDS011;43484;43.608;1.458;2022-08-19T05:55:15;14.98;;;4.40;;
49722;SDS011;43484;43.608;1.458;2022-08-19T05:58:42;12.07;;;3.85;;
49722;SDS011;43484;43.608;1.458;2022-08-19T06:02:08;14.63;;;3.65;;
49722;SDS011;43484;43.608;1.458;2022-08-19T06:05:37;10.93;;;3.88;;
49722;SDS011;43484;43.608;1.458;2022-08-19T06:09:03;13.80;;;4.50;;
49722;SDS011;43484;43.608;1.458;2022-08-19T06:12:31;8.00;;;3.45;;
49722;SDS011;43484;43.608;1.458;2022-08-19T06:16:00;8.95;;;3.47;;
49722;SDS011;43484;43.608;1.458;2022-08-19T06:19:32;13.80;;;4.65;;
49722;SDS011;43484;43.608;1.458;2022-08-19T06:23:19;10.18;;;3.55;;
49722;SDS011;43484;43.608;1.458;2022-08-19T06:26:47;11.48;;;3.97;;
49722;SDS011;43484;43.608;1.458;2022-08-19T06:30:33;17.60;;;4.60;;
49722;SDS011;43484;43.608;1.458;2022-08-19T06:34:03;14.52;;;4.18;;
49722;SDS011;43484;43.608;1.458;2022-08-19T06:37:30;12.95;;;3.70;;
49722;SDS011;43484;43.608;1.458;2022-08-19T06:41:04;14.65;;;3.42;;
49722;SDS011;43484;43.608;1.458;2022-08-19T06:44:36;7.78;;;3.33;;
49722;SDS011;43484;43.608;1.458;2022-08-19T06:48:04;11.25;;;4.20;;
49722;SDS011;43484;43.608;1.458;2022-08-19T06:51:30;16.90;;;3.60;;
49722;SDS011;43484;43.608;1.458;2022-08-19T06:55:00;15.35;;;3.67;;
49722;SDS011;43484;43.608;1.458;2022-08-19T06:58:29;12.50;;;3.75;;
49722;SDS011;43484;43.608;1.458;2022-08-19T07:01:59;7.85;;;3.33;;
49722;SDS011;43484;43.608;1.458;2022-08-19T07:05:31;11.57;;;3.70;;
49722;SDS011;43484;43.608;1.458;2022-08-19T07:09:11;5.53;;;3.22;;
49722;SDS011;43484;43.608;1.458;2022-08-19T07:12:37;8.30;;;3.20;;
49722;SDS011;43484;43.608;1.458;2022-08-19T07:16:04;10.30;;;3.35;;
49722;SDS011;43484;43.608;1.458;2022-08-19T07:19:34;15.02;;;3.80;;
49722;SDS011;43484;43.608;1.458;2022-08-19T07:22:59;10.25;;;3.10;;
49722;SDS011;43484;43.608;1.458;2022-08-19T07:26:32;20.95;;;4.18;;
49722;SDS011;43484;43.608;1.458;2022-08-19T07:29:59;19.75;;;3.60;;
49722;SDS011;43484;43.608;1.458;2022-08-19T07:33:24;12.85;;;3.47;;
49722;SDS011;43484;43.608;1.458;2022-08-19T07:36:49;11.02;;;2.50;;
49722;SDS011;43484;43.608;1.458;2022-08-19T07:43:42;10.60;;;3.08;;
49722;SDS011;43484;43.608;1.458;2022-08-19T07:47:15;14.05;;;3.22;;
49722;SDS011;43484;43.608;1.458;2022-08-19T07:50:40;9.25;;;3.10;;
49722;SDS011;43484;43.608;1.458;2022-08-19T07:54:05;9.75;;;2.75;;
49722;SDS011;43484;43.608;1.458;2022-08-19T07:57:51;9.13;;;3.15;;
49722;SDS011;43484;43.608;1.458;2022-08-19T08:04:42;11.30;;;3.15;;
49722;SDS011;43484;43.608;1.458;2022-08-19T08:08:30;9.10;;;3.38;;
49722;SDS011;43484;43.608;1.458;2022-08-19T08:12:05;8.60;;;3.13;;
49722;SDS011;43484;43.608;1.458;2022-08-19T08:15:36;7.25;;;3.03;;
49722;SDS011;43484;43.608;1.458;2022-08-19T08:19:12;14.57;;;3.47;;
49722;SDS011;43484;43.608;1.458;2022-08-19T08:22:41;8.85;;;3.20;;
49722;SDS011;43484;43.608;1.458;2022-08-19T08:26:07;6.13;;;2.90;;
49722;SDS011;43484;43.608;1.458;2022-08-19T08:29:36;16.98;;;3.47;;
49722;SDS011;43484;43.608;1.458;2022-08-19T08:33:03;9.20;;;2.67;;
49722;SDS011;43484;43.608;1.458;2022-08-19T08:39:53;13.23;;;3.00;;
49722;SDS011;43484;43.608;1.458;2022-08-19T08:43:34;8.45;;;2.92;;
49722;SDS011;43484;43.608;1.458;2022-08-19T08:47:03;7.82;;;3.10;;
49722;SDS011;43484;43.608;1.458;2022-08-19T08:50:49;8.85;;;3.20;;
49722;SDS011;43484;43.608;1.458;2022-08-19T08:54:27;10.15;;;3.13;;
49722;SDS011;43484;43.608;1.458;2022-08-19T08:58:16;12.00;;;3.17;;
49722;SDS011;43484;43.608;1.458;2022-08-19T09:01:46;8.73;;;2.75;;
49722;SDS011;43484;43.608;1.458;2022-08-19T09:05:16;6.55;;;3.08;;
49722;SDS011;43484;43.608;1.458;2022-08-19T09:09:04;13.45;;;2.72;;
49722;SDS011;43484;43.608;1.458;2022-08-19T09:16:33;11.73;;;3.60;;
49722;SDS011;43484;43.608;1.458;2022-08-19T09:20:20;9.30;;;2.95;;
49722;SDS011;43484;43.608;1.458;2022-08-19T09:23:59;9.10;;;3.05;;
49722;SDS011;43484;43.608;1.458;2022-08-19T09:27:24;5.85;;;2.50;;
49722;SDS011;43484;43.608;1.458;2022-08-19T09:30:52;5.85;;;2.58;;
49722;SDS011;43484;43.608;1.458;2022-08-19T09:34:17;11.48;;;2.97;;
49722;SDS011;43484;43.608;1.458;2022-08-19T09:37:43;7.72;;;3.10;;
49722;SDS011;43484;43.608;1.458;2022-08-19T09:41:12;8.43;;;2.88;;
49722;SDS011;43484;43.608;1.458;2022-08-19T09:44:45;10.23;;;3.53;;
49722;SDS011;43484;43.608;1.458;2022-08-19T09:48:10;6.63;;;2.83;;
49722;SDS011;43484;43.608;1.458;2022-08-19T09:51:35;14.35;;;3.50;;
49722;SDS011;43484;43.608;1.458;2022-08-19T09:55:07;5.55;;;2.67;;
49722;SDS011;43484;43.608;1.458;2022-08-19T09:58:35;14.73;;;3.10;;
49722;SDS011;43484;43.608;1.458;2022-08-19T10:02:00;5.38;;;2.30;;
49722;SDS011;43484;43.608;1.458;2022-08-19T10:05:26;7.30;;;2.25;;
49722;SDS011;43484;43.608;1.458;2022-08-19T10:09:11;10.87;;;3.63;;
49722;SDS011;43484;43.608;1.458;2022-08-19T10:12:37;8.02;;;3.13;;
49722;SDS011;43484;43.608;1.458;2022-08-19T10:16:04;12.55;;;2.90;;
49722;SDS011;43484;43.608;1.458;2022-08-19T10:19:46;7.28;;;2.47;;
49722;SDS011;43484;43.608;1.458;2022-08-19T10:23:18;10.45;;;2.42;;
49722;SDS011;43484;43.608;1.458;2022-08-19T10:26:44;11.13;;;3.03;;
49722;SDS011;43484;43.608;1.458;2022-08-19T10:30:16;5.03;;;2.53;;
49722;SDS011;43484;43.608;1.458;2022-08-19T10:34:05;9.00;;;2.97;;
49722;SDS011;43484;43.608;1.458;2022-08-19T10:37:35;5.40;;;2.80;;
49722;SDS011;43484;43.608;1.458;2022-08-19T10:41:11;7.57;;;2.92;;
49722;SDS011;43484;43.608;1.458;2022-08-19T10:44:36;6.50;;;2.97;;
49722;SDS011;43484;43.608;1.458;2022-08-19T10:48:17;6.05;;;2.45;;
49722;SDS011;43484;43.608;1.458;2022-08-19T10:51:42;6.20;;;2.47;;
49722;SDS011;43484;43.608;1.458;2022-08-19T10:55:15;12.23;;;3.03;;
49722;SDS011;43484;43.608;1.458;2022-08-19T10:59:00;6.03;;;3.00;;
49722;SDS011;43484;43.608;1.458;2022-08-19T11:02:25;5.43;;;3.15;;
49722;SDS011;43484;43.608;1.458;2022-08-19T11:06:00;4.45;;;2.65;;
49722;SDS011;43484;43.608;1.458;2022-08-19T11:09:26;5.40;;;3.03;;
49722;SDS011;43484;43.608;1.458;2022-08-19T11:16:17;4.80;;;2.60;;
49722;SDS011;43484;43.608;1.458;2022-08-19T11:19:44;5.63;;;2.67;;
49722;SDS011;43484;43.608;1.458;2022-08-19T11:23:09;7.88;;;3.15;;
49722;SDS011;43484;43.608;1.458;2022-08-19T11:26:36;13.30;;;2.60;;
49722;SDS011;43484;43.608;1.458;2022-08-19T11:30:08;6.15;;;2.53;;
49722;SDS011;43484;43.608;1.458;2022-08-19T11:33:38;8.27;;;2.75;;
49722;SDS011;43484;43.608;1.458;2022-08-19T11:37:03;7.72;;;2.88;;
49722;SDS011;43484;43.608;1.458;2022-08-19T11:40:34;10.63;;;3.30;;
49722;SDS011;43484;43.608;1.458;2022-08-19T11:44:00;7.75;;;2.78;;
49722;SDS011;43484;43.608;1.458;2022-08-19T11:47:25;8.20;;;3.08;;
49722;SDS011;43484;43.608;1.458;2022-08-19T11:54:18;5.30;;;2.70;;
49722;SDS011;43484;43.608;1.458;2022-08-19T11:57:46;7.10;;;2.60;;
49722;SDS011;43484;43.608;1.458;2022-08-19T12:01:12;4.32;;;2.42;;
49722;SDS011;43484;43.608;1.458;2022-08-19T12:04:37;9.18;;;2.78;;
49722;SDS011;43484;43.608;1.458;2022-08-19T12:11:30;5.35;;;2.30;;
49722;SDS011;43484;43.608;1.458;2022-08-19T12:14:56;10.07;;;2.35;;
49722;SDS011;43484;43.608;1.458;2022-08-19T12:18:22;11.15;;;2.40;;
49722;SDS011;43484;43.608;1.458;2022-08-19T12:21:48;6.95;;;2.20;;
49722;SDS011;43484;43.608;1.458;2022-08-19T12:25:14;5.15;;;2.20;;
49722;SDS011;43484;43.608;1.458;2022-08-19T12:28:40;10.77;;;2.58;;
49722;SDS011;43484;43.608;1.458;2022-08-19T12:32:06;7.15;;;2.00;;
49722;SDS011;43484;43.608;1.458;2022-08-19T12:35:31;8.27;;;2.40;;
49722;SDS011;43484;43.608;1.458;2022-08-19T12:38:58;9.50;;;2.67;;
49722;SDS011;43484;43.608;1.458;2022-08-19T12:42:23;5.40;;;2.15;;
49722;SDS011;43484;43.608;1.458;2022-08-19T12:45:49;6.50;;;2.50;;
49722;SDS011;43484;43.608;1.458;2022-08-19T12:49:19;6.93;;;1.80;;
49722;SDS011;43484;43.608;1.458;2022-08-19T12:52:44;11.68;;;2.25;;
49722;SDS011;43484;43.608;1.458;2022-08-19T12:56:10;11.98;;;1.90;;
49722;SDS011;43484;43.608;1.458;2022-08-19T12:59:37;4.93;;;2.03;;
49722;SDS011;43484;43.608;1.458;2022-08-19T13:03:02;8.73;;;2.85;;
49722;SDS011;43484;43.608;1.458;2022-08-19T13:06:27;6.18;;;1.55;;
49722;SDS011;43484;43.608;1.458;2022-08-19T13:09:52;5.68;;;2.00;;
49722;SDS011;43484;43.608;1.458;2022-08-19T13:13:17;6.72;;;1.83;;
49722;SDS011;43484;43.608;1.458;2022-08-19T13:16:43;3.17;;;1.83;;
49722;SDS011;43484;43.608;1.458;2022-08-19T13:20:09;1.45;;;1.23;;
49722;SDS011;43484;43.608;1.458;2022-08-19T13:23:35;4.97;;;1.77;;
49722;SDS011;43484;43.608;1.458;2022-08-19T13:27:02;6.72;;;1.90;;
49722;SDS011;43484;43.608;1.458;2022-08-19T13:30:28;5.88;;;2.03;;
49722;SDS011;43484;43.608;1.458;2022-08-19T13:34:13;3.80;;;1.85;;
49722;SDS011;43484;43.608;1.458;2022-08-19T13:37:42;4.20;;;1.63;;
49722;SDS011;43484;43.608;1.458;2022-08-19T13:41:08;4.50;;;1.90;;
49722;SDS011;43484;43.608;1.458;2022-08-19T13:44:35;3.08;;;1.90;;
49722;SDS011;43484;43.608;1.458;2022-08-19T13:48:01;2.45;;;1.25;;
49722;SDS011;43484;43.608;1.458;2022-08-19T13:51:27;5.25;;;2.10;;
49722;SDS011;43484;43.608;1.458;2022-08-19T13:54:52;4.22;;;2.20;;
49722;SDS011;43484;43.608;1.458;2022-08-19T13:58:19;2.67;;;1.40;;
49722;SDS011;43484;43.608;1.458;2022-08-19T14:01:45;5.47;;;1.80;;
49722;SDS011;43484;43.608;1.458;2022-08-19T14:05:12;4.18;;;1.63;;
49722;SDS011;43484;43.608;1.458;2022-08-19T14:08:37;3.45;;;2.30;;
49722;SDS011;43484;43.608;1.458;2022-08-19T14:12:02;4.78;;;1.63;;
49722;SDS011;43484;43.608;1.458;2022-08-19T14:15:29;3.63;;;1.83;;
49722;SDS011;43484;43.608;1.458;2022-08-19T14:18:56;3.38;;;1.73;;
49722;SDS011;43484;43.608;1.458;2022-08-19T14:22:36;6.95;;;1.90;;
49722;SDS011;43484;43.608;1.458;2022-08-19T14:26:03;2.65;;;1.98;;
49722;SDS011;43484;43.608;1.458;2022-08-19T14:29:30;2.85;;;1.80;;
49722;SDS011;43484;43.608;1.458;2022-08-19T14:33:00;2.90;;;1.75;;
49722;SDS011;43484;43.608;1.458;2022-08-19T14:36:26;5.45;;;2.28;;
49722;SDS011;43484;43.608;1.458;2022-08-19T14:39:53;10.57;;;2.50;;
49722;SDS011;43484;43.608;1.458;2022-08-19T14:43:19;4.32;;;1.77;;
49722;SDS011;43484;43.608;1.458;2022-08-19T14:46:45;3.67;;;2.33;;
49722;SDS011;43484;43.608;1.458;2022-08-19T14:50:11;4.03;;;1.65;;
49722;SDS011;43484;43.608;1.458;2022-08-19T14:53:37;3.05;;;1.38;;
49722;SDS011;43484;43.608;1.458;2022-08-19T14:56:57;3.95;;;1.65;;
49722;SDS011;43484;43.608;1.458;2022-08-19T14:59:49;6.43;;;2.15;;
49722;SDS011;43484;43.608;1.458;2022-08-19T15:02:15;7.10;;;1.90;;
49722;SDS011;43484;43.608;1.458;2022-08-19T15:05:40;3.55;;;1.70;;
49722;SDS011;43484;43.608;1.458;2022-08-19T15:09:06;4.55;;;1.77;;
49722;SDS011;43484;43.608;1.458;2022-08-19T15:12:36;3.60;;;1.60;;
49722;SDS011;43484;43.608;1.458;2022-08-19T15:16:02;2.47;;;1.35;;
49722;SDS011;43484;43.608;1.458;2022-08-19T15:18:30;2.25;;;1.30;;
49722;SDS011;43484;43.608;1.458;2022-08-19T15:20:57;3.60;;;1.60;;
49722;SDS011;43484;43.608;1.458;2022-08-19T15:23:24;3.50;;;1.42;;
49722;SDS011;43484;43.608;1.458;2022-08-19T15:25:51;4.35;;;1.50;;
49722;SDS011;43484;43.608;1.458;2022-08-19T15:29:16;3.63;;;1.85;;
49722;SDS011;43484;43.608;1.458;2022-08-19T15:32:45;6.10;;;1.98;;
49722;SDS011;43484;43.608;1.458;2022-08-19T15:36:11;4.32;;;1.75;;
49722;SDS011;43484;43.608;1.458;2022-08-19T15:39:36;5.90;;;1.85;;
49722;SDS011;43484;43.608;1.458;2022-08-19T15:43:01;5.47;;;2.08;;
49722;SDS011;43484;43.608;1.458;2022-08-19T15:46:35;5.75;;;1.48;;
49722;SDS011;43484;43.608;1.458;2022-08-19T15:50:19;4.63;;;1.83;;
49722;SDS011;43484;43.608;1.458;2022-08-19T15:53:47;2.83;;;1.67;;
49722;SDS011;43484;43.608;1.458;2022-08-19T15:57:12;2.90;;;1.83;;
49722;SDS011;43484;43.608;1.458;2022-08-19T16:01:01;1.98;;;1.13;;
49722;SDS011;43484;43.608;1.458;2022-08-19T16:04:46;2.85;;;1.60;;
49722;SDS011;43484;43.608;1.458;2022-08-19T16:08:37;1.92;;;1.33;;
49722;SDS011;43484;43.608;1.458;2022-08-19T16:12:03;3.97;;;1.58;;
49722;SDS011;43484;43.608;1.458;2022-08-19T16:15:29;6.28;;;1.58;;
49722;SDS011;43484;43.608;1.458;2022-08-19T16:19:00;2.75;;;1.50;;
49722;SDS011;43484;43.608;1.458;2022-08-19T16:22:29;3.88;;;1.45;;
49722;SDS011;43484;43.608;1.458;2022-08-19T16:25:55;2.70;;;1.70;;
49722;SDS011;43484;43.608;1.458;2022-08-19T16:29:20;5.00;;;1.48;;
49722;SDS011;43484;43.608;1.458;2022-08-19T16:32:45;5.38;;;1.50;;
49722;SDS011;43484;43.608;1.458;2022-08-19T16:36:11;5.10;;;1.45;;
49722;SDS011;43484;43.608;1.458;2022-08-19T16:39:37;6.65;;;1.48;;
49722;SDS011;43484;43.608;1.458;2022-08-19T16:43:03;3.90;;;1.60;;
49722;SDS011;43484;43.608;1.458;2022-08-19T16:46:29;4.72;;;1.55;;
49722;SDS011;43484;43.608;1.458;2022-08-19T16:49:54;4.50;;;1.42;;
49722;SDS011;43484;43.608;1.458;2022-08-19T16:53:20;7.60;;;1.80;;
49722;SDS011;43484;43.608;1.458;2022-08-19T16:56:45;5.85;;;1.58;;
49722;SDS011;43484;43.608;1.458;2022-08-19T17:00:11;3.70;;;1.85;;
49722;SDS011;43484;43.608;1.458;2022-08-19T17:03:36;4.25;;;1.60;;
49722;SDS011;43484;43.608;1.458;2022-08-19T17:07:03;2.78;;;1.45;;
49722;SDS011;43484;43.608;1.458;2022-08-19T17:10:28;2.60;;;1.45;;
49722;SDS011;43484;43.608;1.458;2022-08-19T17:13:54;4.70;;;1.77;;
49722;SDS011;43484;43.608;1.458;2022-08-19T17:17:21;2.85;;;1.77;;
49722;SDS011;43484;43.608;1.458;2022-08-19T17:20:48;4.88;;;1.65;;
49722;SDS011;43484;43.608;1.458;2022-08-19T17:24:13;3.08;;;1.70;;
49722;SDS011;43484;43.608;1.458;2022-08-19T17:27:39;5.90;;;1.52;;
49722;SDS011;43484;43.608;1.458;2022-08-19T17:31:05;4.43;;;1.33;;
49722;SDS011;43484;43.608;1.458;2022-08-19T17:34:33;3.85;;;1.55;;
49722;SDS011;43484;43.608;1.458;2022-08-19T17:38:06;5.13;;;1.55;;
49722;SDS011;43484;43.608;1.458;2022-08-19T17:41:31;4.25;;;1.55;;
49722;SDS011;43484;43.608;1.458;2022-08-19T17:44:57;3.67;;;1.58;;
49722;SDS011;43484;43.608;1.458;2022-08-19T17:48:22;4.35;;;1.75;;
49722;SDS011;43484;43.608;1.458;2022-08-19T17:55:13;2.50;;;1.50;;
49722;SDS011;43484;43.608;1.458;2022-08-19T17:58:41;3.40;;;1.40;;
49722;SDS011;43484;43.608;1.458;2022-08-19T18:02:07;9.25;;;1.80;;
49722;SDS011;43484;43.608;1.458;2022-08-19T18:05:40;6.22;;;1.58;;
49722;SDS011;43484;43.608;1.458;2022-08-19T18:09:17;4.20;;;1.55;;
49722;SDS011;43484;43.608;1.458;2022-08-19T18:12:44;3.80;;;1.60;;
49722;SDS011;43484;43.608;1.458;2022-08-19T18:19:37;2.28;;;1.50;;
49722;SDS011;43484;43.608;1.458;2022-08-19T18:23:02;2.42;;;1.60;;
49722;SDS011;43484;43.608;1.458;2022-08-19T18:29:53;4.93;;;2.03;;
49722;SDS011;43484;43.608;1.458;2022-08-19T18:33:18;3.55;;;1.48;;
49722;SDS011;43484;43.608;1.458;2022-08-19T18:40:11;3.78;;;1.70;;
49722;SDS011;43484;43.608;1.458;2022-08-19T18:43:56;5.75;;;1.50;;
49722;SDS011;43484;43.608;1.458;2022-08-19T18:47:40;8.90;;;2.17;;
49722;SDS011;43484;43.608;1.458;2022-08-19T18:51:24;11.43;;;2.10;;
49722;SDS011;43484;43.608;1.458;2022-08-19T18:54:50;5.32;;;1.77;;
49722;SDS011;43484;43.608;1.458;2022-08-19T18:58:21;6.65;;;1.40;;
49722;SDS011;43484;43.608;1.458;2022-08-19T19:01:51;6.13;;;2.03;;
49722;SDS011;43484;43.608;1.458;2022-08-19T19:05:20;4.53;;;1.98;;
49722;SDS011;43484;43.608;1.458;2022-08-19T19:08:48;7.07;;;1.80;;
49722;SDS011;43484;43.608;1.458;2022-08-19T19:12:16;4.15;;;2.10;;
49722;SDS011;43484;43.608;1.458;2022-08-19T19:15:42;5.22;;;1.80;;
49722;SDS011;43484;43.608;1.458;2022-08-19T19:19:12;4.22;;;1.70;;
49722;SDS011;43484;43.608;1.458;2022-08-19T19:26:06;5.82;;;2.15;;
49722;SDS011;43484;43.608;1.458;2022-08-19T19:29:34;6.47;;;1.92;;
49722;SDS011;43484;43.608;1.458;2022-08-19T19:32:59;3.83;;;1.55;;
49722;SDS011;43484;43.608;1.458;2022-08-19T19:39:49;4.25;;;2.03;;
49722;SDS011;43484;43.608;1.458;2022-08-19T19:43:14;6.80;;;2.58;;
49722;SDS011;43484;43.608;1.458;2022-08-19T19:46:57;3.92;;;2.55;;
49722;SDS011;43484;43.608;1.458;2022-08-19T19:50:23;4.97;;;2.55;;
49722;SDS011;43484;43.608;1.458;2022-08-19T19:53:49;12.50;;;3.40;;
49722;SDS011;43484;43.608;1.458;2022-08-19T19:57:14;6.43;;;3.58;;
49722;SDS011;43484;43.608;1.458;2022-08-19T20:00:40;8.23;;;2.70;;
49722;SDS011;43484;43.608;1.458;2022-08-19T20:04:12;5.20;;;2.67;;
49722;SDS011;43484;43.608;1.458;2022-08-19T20:07:38;6.18;;;3.40;;
49722;SDS011;43484;43.608;1.458;2022-08-19T20:11:29;5.22;;;2.50;;
49722;SDS011;43484;43.608;1.458;2022-08-19T20:14:55;5.35;;;2.95;;
49722;SDS011;43484;43.608;1.458;2022-08-19T20:18:20;6.70;;;2.97;;
49722;SDS011;43484;43.608;1.458;2022-08-19T20:21:47;6.63;;;2.78;;
49722;SDS011;43484;43.608;1.458;2022-08-19T20:25:14;10.02;;;3.22;;
49722;SDS011;43484;43.608;1.458;2022-08-19T20:28:57;10.25;;;3.08;;
49722;SDS011;43484;43.608;1.458;2022-08-19T20:32:22;7.70;;;3.40;;
49722;SDS011;43484;43.608;1.458;2022-08-19T20:35:48;6.18;;;2.80;;
49722;SDS011;43484;43.608;1.458;2022-08-19T20:39:13;5.28;;;3.28;;
49722;SDS011;43484;43.608;1.458;2022-08-19T20:42:39;3.58;;;2.90;;
49722;SDS011;43484;43.608;1.458;2022-08-19T20:46:05;5.93;;;2.63;;
49722;SDS011;43484;43.608;1.458;2022-08-19T20:49:30;5.82;;;3.15;;
49722;SDS011;43484;43.608;1.458;2022-08-19T20:52:57;7.78;;;3.38;;
49722;SDS011;43484;43.608;1.458;2022-08-19T20:56:26;5.85;;;3.08;;
49722;SDS011;43484;43.608;1.458;2022-08-19T20:59:52;6.30;;;2.85;;
49722;SDS011;43484;43.608;1.458;2022-08-19T21:03:20;6.05;;;2.88;;
49722;SDS011;43484;43.608;1.458;2022-08-19T21:06:47;5.78;;;3.00;;
49722;SDS011;43484;43.608;1.458;2022-08-19T21:10:12;6.00;;;3.38;;
49722;SDS011;43484;43.608;1.458;2022-08-19T21:13:45;9.23;;;3.17;;
49722;SDS011;43484;43.608;1.458;2022-08-19T21:17:12;6.75;;;3.13;;
49722;SDS011;43484;43.608;1.458;2022-08-19T21:20:41;6.47;;;3.17;;
49722;SDS011;43484;43.608;1.458;2022-08-19T21:24:06;7.50;;;3.30;;
49722;SDS011;43484;43.608;1.458;2022-08-19T21:27:31;3.85;;;2.50;;
49722;SDS011;43484;43.608;1.458;2022-08-19T21:31:02;5.65;;;2.80;;
49722;SDS011;43484;43.608;1.458;2022-08-19T21:34:28;7.57;;;3.60;;
49722;SDS011;43484;43.608;1.458;2022-08-19T21:37:54;3.90;;;2.67;;
49722;SDS011;43484;43.608;1.458;2022-08-19T21:41:19;3.85;;;2.50;;